sensor_id;sensor_type;location;lat;lon;timestamp;P1;durP1;ratioP1;P2;durP2;ratioP2
19969;SDS011;10146;47.754;9.566;2023-02-22T00:00:52;14.30;;;8.40;;
19969;SDS011;10146;47.754;9.566;2023-02-22T00:03:25;14.27;;;8.50;;
19969;SDS011;10146;47.754;9.566;2023-02-22T00:05:53;12.43;;;8.00;;
19969;SDS011;10146;47.754;9.566;2023-02-22T00:08:23;14.02;;;8.57;;
19969;SDS011;10146;47.754;9.566;2023-02-22T00:10:54;11.38;;;8.05;;
19969;SDS011;10146;47.754;9.566;2023-02-22T00:13:20;11.60;;;8.50;;
19969;SDS011;10146;47.754;9.566;2023-02-22T00:15:46;13.90;;;8.52;;
19969;SDS011;10146;47.754;9.566;2023-02-22T00:18:14;14.45;;;7.85;;
19969;SDS011;10146;47.754;9.566;2023-02-22T00:20:41;11.95;;;8.10;;
19969;SDS011;10146;47.754;9.566;2023-02-22T00:23:08;11.80;;;7.75;;
19969;SDS011;10146;47.754;9.566;2023-02-22T00:25:38;10.70;;;8.23;;
19969;SDS011;10146;47.754;9.566;2023-02-22T00:28:04;12.43;;;8.65;;
19969;SDS011;10146;47.754;9.566;2023-02-22T00:30:29;11.40;;;9.25;;
19969;SDS011;10146;47.754;9.566;2023-02-22T00:32:57;13.18;;;10.00;;
19969;SDS011;10146;47.754;9.566;2023-02-22T00:35:24;15.02;;;10.27;;
19969;SDS011;10146;47.754;9.566;2023-02-22T00:37:53;13.18;;;10.15;;
19969;SDS011;10146;47.754;9.566;2023-02-22T00:40:22;13.13;;;9.77;;
19969;SDS011;10146;47.754;9.566;2023-02-22T00:42:50;13.32;;;9.75;;
19969;SDS011;10146;47.754;9.566;2023-02-22T00:45:18;14.18;;;10.05;;
19969;SDS011;10146;47.754;9.566;2023-02-22T00:47:45;14.13;;;9.55;;
19969;SDS011;10146;47.754;9.566;2023-02-22T00:50:11;11.43;;;9.10;;
19969;SDS011;10146;47.754;9.566;2023-02-22T00:52:37;11.82;;;9.18;;
19969;SDS011;10146;47.754;9.566;2023-02-22T00:55:04;10.95;;;9.57;;
19969;SDS011;10146;47.754;9.566;2023-02-22T00:57:32;14.60;;;10.20;;
19969;SDS011;10146;47.754;9.566;2023-02-22T01:00:01;11.02;;;9.23;;
19969;SDS011;10146;47.754;9.566;2023-02-22T01:02:36;13.68;;;10.23;;
19969;SDS011;10146;47.754;9.566;2023-02-22T01:05:03;11.02;;;9.00;;
19969;SDS011;10146;47.754;9.566;2023-02-22T01:07:29;12.40;;;9.20;;
19969;SDS011;10146;47.754;9.566;2023-02-22T01:09:55;12.10;;;9.25;;
19969;SDS011;10146;47.754;9.566;2023-02-22T01:12:21;12.52;;;10.15;;
19969;SDS011;10146;47.754;9.566;2023-02-22T01:14:47;11.70;;;9.48;;
19969;SDS011;10146;47.754;9.566;2023-02-22T01:17:13;12.73;;;9.73;;
19969;SDS011;10146;47.754;9.566;2023-02-22T01:19:38;12.43;;;9.93;;
19969;SDS011;10146;47.754;9.566;2023-02-22T01:22:06;11.65;;;9.70;;
19969;SDS011;10146;47.754;9.566;2023-02-22T01:24:32;11.30;;;9.35;;
19969;SDS011;10146;47.754;9.566;2023-02-22T01:26:58;12.02;;;9.95;;
19969;SDS011;10146;47.754;9.566;2023-02-22T01:29:24;11.98;;;9.55;;
19969;SDS011;10146;47.754;9.566;2023-02-22T01:31:53;13.63;;;9.82;;
19969;SDS011;10146;47.754;9.566;2023-02-22T01:34:20;13.65;;;9.90;;
19969;SDS011;10146;47.754;9.566;2023-02-22T01:36:47;12.52;;;9.20;;
19969;SDS011;10146;47.754;9.566;2023-02-22T01:39:12;11.05;;;8.98;;
19969;SDS011;10146;47.754;9.566;2023-02-22T01:41:38;13.23;;;9.23;;
19969;SDS011;10146;47.754;9.566;2023-02-22T01:44:17;12.07;;;8.95;;
19969;SDS011;10146;47.754;9.566;2023-02-22T01:46:46;12.98;;;9.57;;
19969;SDS011;10146;47.754;9.566;2023-02-22T01:49:12;12.15;;;9.55;;
19969;SDS011;10146;47.754;9.566;2023-02-22T01:51:40;11.98;;;9.48;;
19969;SDS011;10146;47.754;9.566;2023-02-22T01:54:09;11.60;;;9.65;;
19969;SDS011;10146;47.754;9.566;2023-02-22T01:56:58;10.13;;;8.82;;
19969;SDS011;10146;47.754;9.566;2023-02-22T01:59:30;12.55;;;9.88;;
19969;SDS011;10146;47.754;9.566;2023-02-22T02:01:59;10.98;;;8.95;;
19969;SDS011;10146;47.754;9.566;2023-02-22T02:04:25;13.50;;;8.68;;
19969;SDS011;10146;47.754;9.566;2023-02-22T02:06:52;14.30;;;9.40;;
19969;SDS011;10146;47.754;9.566;2023-02-22T02:09:34;12.65;;;9.60;;
19969;SDS011;10146;47.754;9.566;2023-02-22T02:12:03;14.55;;;10.20;;
19969;SDS011;10146;47.754;9.566;2023-02-22T02:14:32;13.80;;;10.07;;
19969;SDS011;10146;47.754;9.566;2023-02-22T02:17:04;12.40;;;9.38;;
19969;SDS011;10146;47.754;9.566;2023-02-22T02:19:43;11.63;;;9.18;;
19969;SDS011;10146;47.754;9.566;2023-02-22T02:27:55;13.18;;;10.45;;
19969;SDS011;10146;47.754;9.566;2023-02-22T02:30:39;13.48;;;10.07;;
19969;SDS011;10146;47.754;9.566;2023-02-22T02:35:46;11.50;;;10.23;;
19969;SDS011;10146;47.754;9.566;2023-02-22T02:38:29;12.13;;;9.90;;
19969;SDS011;10146;47.754;9.566;2023-02-22T02:41:08;12.52;;;8.98;;
19969;SDS011;10146;47.754;9.566;2023-02-22T02:43:50;13.90;;;9.95;;
19969;SDS011;10146;47.754;9.566;2023-02-22T02:46:31;13.02;;;9.50;;
19969;SDS011;10146;47.754;9.566;2023-02-22T02:49:09;11.60;;;9.43;;
19969;SDS011;10146;47.754;9.566;2023-02-22T02:51:40;13.13;;;10.38;;
19969;SDS011;10146;47.754;9.566;2023-02-22T02:54:10;12.63;;;9.48;;
19969;SDS011;10146;47.754;9.566;2023-02-22T02:56:36;14.23;;;10.65;;
19969;SDS011;10146;47.754;9.566;2023-02-22T02:59:02;12.45;;;9.98;;
19969;SDS011;10146;47.754;9.566;2023-02-22T03:07:13;11.10;;;9.57;;
19969;SDS011;10146;47.754;9.566;2023-02-22T03:10:33;12.35;;;9.90;;
19969;SDS011;10146;47.754;9.566;2023-02-22T03:13:15;11.57;;;9.43;;
19969;SDS011;10146;47.754;9.566;2023-02-22T03:23:58;13.15;;;9.45;;
19969;SDS011;10146;47.754;9.566;2023-02-22T03:26:28;13.48;;;9.68;;
19969;SDS011;10146;47.754;9.566;2023-02-22T03:29:02;12.13;;;10.32;;
19969;SDS011;10146;47.754;9.566;2023-02-22T03:31:39;11.63;;;9.52;;
19969;SDS011;10146;47.754;9.566;2023-02-22T03:34:10;11.18;;;9.90;;
19969;SDS011;10146;47.754;9.566;2023-02-22T03:37:02;13.23;;;10.05;;
19969;SDS011;10146;47.754;9.566;2023-02-22T03:39:33;13.75;;;10.07;;
19969;SDS011;10146;47.754;9.566;2023-02-22T03:42:03;12.48;;;9.80;;
19969;SDS011;10146;47.754;9.566;2023-02-22T03:44:33;13.13;;;10.32;;
19969;SDS011;10146;47.754;9.566;2023-02-22T03:47:03;12.45;;;9.95;;
19969;SDS011;10146;47.754;9.566;2023-02-22T03:49:36;13.82;;;10.48;;
19969;SDS011;10146;47.754;9.566;2023-02-22T03:52:12;11.80;;;10.40;;
19969;SDS011;10146;47.754;9.566;2023-02-22T03:54:38;10.57;;;9.23;;
19969;SDS011;10146;47.754;9.566;2023-02-22T03:57:13;11.80;;;9.48;;
19969;SDS011;10146;47.754;9.566;2023-02-22T03:59:44;12.02;;;9.50;;
19969;SDS011;10146;47.754;9.566;2023-02-22T04:02:10;10.45;;;9.25;;
19969;SDS011;10146;47.754;9.566;2023-02-22T04:04:36;11.88;;;10.27;;
19969;SDS011;10146;47.754;9.566;2023-02-22T04:07:02;14.35;;;10.10;;
19969;SDS011;10146;47.754;9.566;2023-02-22T04:09:28;12.73;;;9.82;;
19969;SDS011;10146;47.754;9.566;2023-02-22T04:11:53;12.55;;;9.77;;
19969;SDS011;10146;47.754;9.566;2023-02-22T04:14:19;14.77;;;10.43;;
19969;SDS011;10146;47.754;9.566;2023-02-22T04:16:44;16.67;;;11.23;;
19969;SDS011;10146;47.754;9.566;2023-02-22T04:19:10;12.73;;;9.85;;
19969;SDS011;10146;47.754;9.566;2023-02-22T04:21:35;11.85;;;9.38;;
19969;SDS011;10146;47.754;9.566;2023-02-22T04:24:01;12.05;;;9.68;;
19969;SDS011;10146;47.754;9.566;2023-02-22T04:26:27;12.77;;;9.55;;
19969;SDS011;10146;47.754;9.566;2023-02-22T04:28:52;12.57;;;9.20;;
19969;SDS011;10146;47.754;9.566;2023-02-22T04:31:18;13.50;;;10.40;;
19969;SDS011;10146;47.754;9.566;2023-02-22T04:33:44;11.55;;;9.80;;
19969;SDS011;10146;47.754;9.566;2023-02-22T04:36:09;14.65;;;10.45;;
19969;SDS011;10146;47.754;9.566;2023-02-22T04:38:35;13.10;;;10.43;;
19969;SDS011;10146;47.754;9.566;2023-02-22T04:41:01;12.25;;;10.38;;
19969;SDS011;10146;47.754;9.566;2023-02-22T04:43:26;14.13;;;11.15;;
19969;SDS011;10146;47.754;9.566;2023-02-22T04:45:52;13.77;;;10.57;;
19969;SDS011;10146;47.754;9.566;2023-02-22T04:48:17;15.35;;;11.05;;
19969;SDS011;10146;47.754;9.566;2023-02-22T04:50:43;14.52;;;10.02;;
19969;SDS011;10146;47.754;9.566;2023-02-22T04:53:09;12.95;;;9.73;;
19969;SDS011;10146;47.754;9.566;2023-02-22T04:55:34;14.38;;;10.25;;
19969;SDS011;10146;47.754;9.566;2023-02-22T04:58:00;13.57;;;9.63;;
19969;SDS011;10146;47.754;9.566;2023-02-22T05:00:26;11.63;;;9.88;;
19969;SDS011;10146;47.754;9.566;2023-02-22T05:02:51;13.88;;;10.73;;
19969;SDS011;10146;47.754;9.566;2023-02-22T05:05:18;16.13;;;10.00;;
19969;SDS011;10146;47.754;9.566;2023-02-22T05:07:45;11.90;;;9.25;;
19969;SDS011;10146;47.754;9.566;2023-02-22T05:10:12;12.63;;;10.18;;
19969;SDS011;10146;47.754;9.566;2023-02-22T05:12:38;12.25;;;9.70;;
19969;SDS011;10146;47.754;9.566;2023-02-22T05:15:04;13.18;;;10.27;;
19969;SDS011;10146;47.754;9.566;2023-02-22T05:17:31;13.50;;;10.20;;
19969;SDS011;10146;47.754;9.566;2023-02-22T05:19:57;11.88;;;10.60;;
19969;SDS011;10146;47.754;9.566;2023-02-22T05:22:23;11.82;;;10.07;;
19969;SDS011;10146;47.754;9.566;2023-02-22T05:24:49;12.25;;;10.45;;
19969;SDS011;10146;47.754;9.566;2023-02-22T05:27:16;13.25;;;9.98;;
19969;SDS011;10146;47.754;9.566;2023-02-22T05:29:42;15.63;;;9.60;;
19969;SDS011;10146;47.754;9.566;2023-02-22T05:32:08;13.82;;;9.43;;
19969;SDS011;10146;47.754;9.566;2023-02-22T05:34:33;13.80;;;10.07;;
19969;SDS011;10146;47.754;9.566;2023-02-22T05:36:59;12.32;;;9.63;;
19969;SDS011;10146;47.754;9.566;2023-02-22T05:39:24;12.70;;;10.02;;
19969;SDS011;10146;47.754;9.566;2023-02-22T05:41:50;12.65;;;9.73;;
19969;SDS011;10146;47.754;9.566;2023-02-22T05:44:16;12.20;;;9.48;;
19969;SDS011;10146;47.754;9.566;2023-02-22T05:46:41;11.65;;;9.20;;
19969;SDS011;10146;47.754;9.566;2023-02-22T05:49:07;13.68;;;10.55;;
19969;SDS011;10146;47.754;9.566;2023-02-22T05:51:32;13.20;;;10.57;;
19969;SDS011;10146;47.754;9.566;2023-02-22T05:53:58;14.15;;;10.75;;
19969;SDS011;10146;47.754;9.566;2023-02-22T05:56:24;11.95;;;9.65;;
19969;SDS011;10146;47.754;9.566;2023-02-22T05:58:52;11.95;;;10.50;;
19969;SDS011;10146;47.754;9.566;2023-02-22T06:01:18;14.27;;;9.95;;
19969;SDS011;10146;47.754;9.566;2023-02-22T06:03:46;12.55;;;9.90;;
19969;SDS011;10146;47.754;9.566;2023-02-22T06:06:15;12.90;;;9.93;;
19969;SDS011;10146;47.754;9.566;2023-02-22T06:08:42;14.65;;;9.95;;
19969;SDS011;10146;47.754;9.566;2023-02-22T06:11:08;10.50;;;9.38;;
19969;SDS011;10146;47.754;9.566;2023-02-22T06:13:35;11.40;;;10.15;;
19969;SDS011;10146;47.754;9.566;2023-02-22T06:16:01;10.98;;;9.15;;
19969;SDS011;10146;47.754;9.566;2023-02-22T06:18:27;12.68;;;9.77;;
19969;SDS011;10146;47.754;9.566;2023-02-22T06:20:54;12.15;;;9.57;;
19969;SDS011;10146;47.754;9.566;2023-02-22T06:23:20;13.05;;;10.10;;
19969;SDS011;10146;47.754;9.566;2023-02-22T06:25:46;12.65;;;10.07;;
19969;SDS011;10146;47.754;9.566;2023-02-22T06:28:12;12.45;;;10.30;;
19969;SDS011;10146;47.754;9.566;2023-02-22T06:30:38;13.73;;;9.43;;
19969;SDS011;10146;47.754;9.566;2023-02-22T06:33:04;12.20;;;9.82;;
19969;SDS011;10146;47.754;9.566;2023-02-22T06:35:30;13.45;;;9.48;;
19969;SDS011;10146;47.754;9.566;2023-02-22T06:37:56;10.93;;;8.95;;
19969;SDS011;10146;47.754;9.566;2023-02-22T06:40:21;11.38;;;8.82;;
19969;SDS011;10146;47.754;9.566;2023-02-22T06:42:47;13.95;;;9.35;;
19969;SDS011;10146;47.754;9.566;2023-02-22T06:45:14;13.68;;;9.80;;
19969;SDS011;10146;47.754;9.566;2023-02-22T06:47:41;11.77;;;9.20;;
19969;SDS011;10146;47.754;9.566;2023-02-22T06:50:09;12.75;;;9.60;;
19969;SDS011;10146;47.754;9.566;2023-02-22T06:52:52;11.00;;;8.65;;
19969;SDS011;10146;47.754;9.566;2023-02-22T06:55:27;11.02;;;8.98;;
19969;SDS011;10146;47.754;9.566;2023-02-22T06:57:54;12.57;;;9.50;;
19969;SDS011;10146;47.754;9.566;2023-02-22T07:00:21;13.93;;;9.65;;
19969;SDS011;10146;47.754;9.566;2023-02-22T07:02:48;14.48;;;9.80;;
19969;SDS011;10146;47.754;9.566;2023-02-22T07:05:15;13.10;;;10.00;;
19969;SDS011;10146;47.754;9.566;2023-02-22T07:07:43;11.43;;;9.45;;
19969;SDS011;10146;47.754;9.566;2023-02-22T07:10:16;13.07;;;9.77;;
19969;SDS011;10146;47.754;9.566;2023-02-22T07:12:44;12.50;;;10.05;;
19969;SDS011;10146;47.754;9.566;2023-02-22T07:15:10;13.07;;;9.80;;
19969;SDS011;10146;47.754;9.566;2023-02-22T07:17:35;15.27;;;9.65;;
19969;SDS011;10146;47.754;9.566;2023-02-22T07:20:01;14.95;;;10.40;;
19969;SDS011;10146;47.754;9.566;2023-02-22T07:22:27;12.98;;;9.65;;
19969;SDS011;10146;47.754;9.566;2023-02-22T07:24:54;11.43;;;9.40;;
19969;SDS011;10146;47.754;9.566;2023-02-22T07:27:19;16.17;;;10.32;;
19969;SDS011;10146;47.754;9.566;2023-02-22T07:29:46;14.05;;;10.20;;
19969;SDS011;10146;47.754;9.566;2023-02-22T07:32:12;12.77;;;9.60;;
19969;SDS011;10146;47.754;9.566;2023-02-22T07:34:37;14.23;;;9.63;;
19969;SDS011;10146;47.754;9.566;2023-02-22T07:37:05;13.57;;;9.82;;
19969;SDS011;10146;47.754;9.566;2023-02-22T07:39:31;12.68;;;10.70;;
19969;SDS011;10146;47.754;9.566;2023-02-22T07:41:57;14.43;;;10.90;;
19969;SDS011;10146;47.754;9.566;2023-02-22T07:44:23;14.77;;;11.80;;
19969;SDS011;10146;47.754;9.566;2023-02-22T07:46:48;15.32;;;10.85;;
19969;SDS011;10146;47.754;9.566;2023-02-22T07:49:14;14.50;;;11.38;;
19969;SDS011;10146;47.754;9.566;2023-02-22T07:51:40;14.55;;;11.20;;
19969;SDS011;10146;47.754;9.566;2023-02-22T07:54:06;13.40;;;10.75;;
19969;SDS011;10146;47.754;9.566;2023-02-22T07:56:31;13.38;;;11.45;;
19969;SDS011;10146;47.754;9.566;2023-02-22T07:58:57;13.60;;;11.50;;
19969;SDS011;10146;47.754;9.566;2023-02-22T08:01:22;13.38;;;11.90;;
19969;SDS011;10146;47.754;9.566;2023-02-22T08:03:48;18.85;;;13.13;;
19969;SDS011;10146;47.754;9.566;2023-02-22T08:06:14;14.95;;;13.45;;
19969;SDS011;10146;47.754;9.566;2023-02-22T08:08:40;16.48;;;13.18;;
19969;SDS011;10146;47.754;9.566;2023-02-22T08:11:06;14.63;;;12.55;;
19969;SDS011;10146;47.754;9.566;2023-02-22T08:13:32;13.25;;;11.30;;
19969;SDS011;10146;47.754;9.566;2023-02-22T08:15:58;13.88;;;10.65;;
19969;SDS011;10146;47.754;9.566;2023-02-22T08:18:24;15.00;;;11.63;;
19969;SDS011;10146;47.754;9.566;2023-02-22T08:20:50;17.33;;;11.73;;
19969;SDS011;10146;47.754;9.566;2023-02-22T08:23:18;13.98;;;11.38;;
19969;SDS011;10146;47.754;9.566;2023-02-22T08:25:45;15.15;;;11.48;;
19969;SDS011;10146;47.754;9.566;2023-02-22T08:28:11;13.52;;;12.00;;
19969;SDS011;10146;47.754;9.566;2023-02-22T08:30:39;14.27;;;11.65;;
19969;SDS011;10146;47.754;9.566;2023-02-22T08:33:09;15.63;;;12.10;;
19969;SDS011;10146;47.754;9.566;2023-02-22T08:35:38;16.50;;;13.30;;
19969;SDS011;10146;47.754;9.566;2023-02-22T08:38:05;16.38;;;13.13;;
19969;SDS011;10146;47.754;9.566;2023-02-22T08:40:32;14.20;;;12.30;;
19969;SDS011;10146;47.754;9.566;2023-02-22T08:42:59;16.98;;;13.05;;
19969;SDS011;10146;47.754;9.566;2023-02-22T08:45:25;15.57;;;13.07;;
19969;SDS011;10146;47.754;9.566;2023-02-22T08:47:51;16.20;;;12.18;;
19969;SDS011;10146;47.754;9.566;2023-02-22T08:50:18;18.35;;;13.00;;
19969;SDS011;10146;47.754;9.566;2023-02-22T08:52:46;18.30;;;13.63;;
19969;SDS011;10146;47.754;9.566;2023-02-22T08:55:13;18.33;;;13.07;;
19969;SDS011;10146;47.754;9.566;2023-02-22T08:57:39;15.52;;;12.73;;
19969;SDS011;10146;47.754;9.566;2023-02-22T09:00:05;18.90;;;12.82;;
19969;SDS011;10146;47.754;9.566;2023-02-22T09:02:31;15.35;;;12.45;;
19969;SDS011;10146;47.754;9.566;2023-02-22T09:04:56;15.48;;;12.63;;
19969;SDS011;10146;47.754;9.566;2023-02-22T09:07:22;14.90;;;11.57;;
19969;SDS011;10146;47.754;9.566;2023-02-22T09:09:48;15.07;;;11.35;;
19969;SDS011;10146;47.754;9.566;2023-02-22T09:12:14;18.25;;;12.05;;
19969;SDS011;10146;47.754;9.566;2023-02-22T09:14:39;15.68;;;11.32;;
19969;SDS011;10146;47.754;9.566;2023-02-22T09:17:06;14.82;;;11.10;;
19969;SDS011;10146;47.754;9.566;2023-02-22T09:19:32;14.10;;;10.73;;
19969;SDS011;10146;47.754;9.566;2023-02-22T09:21:58;13.93;;;10.95;;
19969;SDS011;10146;47.754;9.566;2023-02-22T09:24:24;11.95;;;10.20;;
19969;SDS011;10146;47.754;9.566;2023-02-22T09:26:50;20.42;;;11.10;;
19969;SDS011;10146;47.754;9.566;2023-02-22T09:29:22;16.45;;;10.90;;
19969;SDS011;10146;47.754;9.566;2023-02-22T09:31:51;12.20;;;10.18;;
19969;SDS011;10146;47.754;9.566;2023-02-22T09:34:18;13.60;;;10.43;;
19969;SDS011;10146;47.754;9.566;2023-02-22T09:36:46;14.00;;;11.77;;
19969;SDS011;10146;47.754;9.566;2023-02-22T09:39:14;15.48;;;11.75;;
19969;SDS011;10146;47.754;9.566;2023-02-22T09:44:21;15.05;;;11.30;;
19969;SDS011;10146;47.754;9.566;2023-02-22T09:46:52;17.48;;;12.10;;
19969;SDS011;10146;47.754;9.566;2023-02-22T09:49:22;14.30;;;12.80;;
19969;SDS011;10146;47.754;9.566;2023-02-22T09:52:03;14.10;;;12.02;;
19969;SDS011;10146;47.754;9.566;2023-02-22T09:54:42;16.90;;;12.73;;
19969;SDS011;10146;47.754;9.566;2023-02-22T09:57:12;15.25;;;12.32;;
19969;SDS011;10146;47.754;9.566;2023-02-22T10:00:05;18.20;;;12.82;;
19969;SDS011;10146;47.754;9.566;2023-02-22T10:02:38;16.35;;;12.25;;
19969;SDS011;10146;47.754;9.566;2023-02-22T10:05:17;15.85;;;12.25;;
19969;SDS011;10146;47.754;9.566;2023-02-22T10:07:49;13.48;;;11.68;;
19969;SDS011;10146;47.754;9.566;2023-02-22T10:10:21;14.20;;;11.63;;
19969;SDS011;10146;47.754;9.566;2023-02-22T10:18:17;14.80;;;11.63;;
19969;SDS011;10146;47.754;9.566;2023-02-22T10:21:00;15.65;;;11.60;;
19969;SDS011;10146;47.754;9.566;2023-02-22T10:26:28;15.88;;;11.68;;
19969;SDS011;10146;47.754;9.566;2023-02-22T10:31:25;15.02;;;11.60;;
19969;SDS011;10146;47.754;9.566;2023-02-22T10:34:04;14.25;;;11.13;;
19969;SDS011;10146;47.754;9.566;2023-02-22T10:36:37;13.63;;;10.18;;
19969;SDS011;10146;47.754;9.566;2023-02-22T10:41:50;16.05;;;11.77;;
19969;SDS011;10146;47.754;9.566;2023-02-22T10:44:19;16.20;;;11.93;;
19969;SDS011;10146;47.754;9.566;2023-02-22T10:46:45;13.77;;;11.05;;
19969;SDS011;10146;47.754;9.566;2023-02-22T10:49:14;15.07;;;11.35;;
19969;SDS011;10146;47.754;9.566;2023-02-22T10:51:47;14.05;;;11.55;;
19969;SDS011;10146;47.754;9.566;2023-02-22T10:54:23;16.85;;;11.85;;
19969;SDS011;10146;47.754;9.566;2023-02-22T10:56:58;15.27;;;11.98;;
19969;SDS011;10146;47.754;9.566;2023-02-22T10:59:29;15.10;;;11.75;;
19969;SDS011;10146;47.754;9.566;2023-02-22T11:04:48;13.50;;;11.98;;
19969;SDS011;10146;47.754;9.566;2023-02-22T11:09:57;16.65;;;11.48;;
19969;SDS011;10146;47.754;9.566;2023-02-22T11:12:29;16.98;;;12.07;;
19969;SDS011;10146;47.754;9.566;2023-02-22T11:17:43;13.93;;;12.43;;
19969;SDS011;10146;47.754;9.566;2023-02-22T11:20:17;17.35;;;12.85;;
19969;SDS011;10146;47.754;9.566;2023-02-22T11:22:52;14.25;;;12.35;;
19969;SDS011;10146;47.754;9.566;2023-02-22T11:25:20;15.18;;;12.88;;
19969;SDS011;10146;47.754;9.566;2023-02-22T11:27:50;16.65;;;13.52;;
19969;SDS011;10146;47.754;9.566;2023-02-22T11:30:29;15.10;;;12.27;;
19969;SDS011;10146;47.754;9.566;2023-02-22T11:32:58;14.70;;;12.35;;
19969;SDS011;10146;47.754;9.566;2023-02-22T11:35:49;14.57;;;12.18;;
19969;SDS011;10146;47.754;9.566;2023-02-22T11:43:44;15.32;;;11.50;;
19969;SDS011;10146;47.754;9.566;2023-02-22T11:46:13;14.40;;;11.50;;
19969;SDS011;10146;47.754;9.566;2023-02-22T12:10:45;19.35;;;13.82;;
19969;SDS011;10146;47.754;9.566;2023-02-22T12:16:23;18.33;;;13.77;;
19969;SDS011;10146;47.754;9.566;2023-02-22T12:21:41;17.50;;;14.30;;
19969;SDS011;10146;47.754;9.566;2023-02-22T12:24:17;18.55;;;13.68;;
19969;SDS011;10146;47.754;9.566;2023-02-22T12:26:48;19.45;;;14.98;;
19969;SDS011;10146;47.754;9.566;2023-02-22T12:29:21;17.58;;;14.60;;
19969;SDS011;10146;47.754;9.566;2023-02-22T12:37:51;16.90;;;13.68;;
19969;SDS011;10146;47.754;9.566;2023-02-22T12:46:04;16.67;;;13.13;;
19969;SDS011;10146;47.754;9.566;2023-02-22T12:48:53;15.30;;;13.65;;
19969;SDS011;10146;47.754;9.566;2023-02-22T12:51:31;17.40;;;13.00;;
19969;SDS011;10146;47.754;9.566;2023-02-22T13:02:14;15.07;;;12.73;;
19969;SDS011;10146;47.754;9.566;2023-02-22T13:04:48;17.00;;;13.05;;
19969;SDS011;10146;47.754;9.566;2023-02-22T13:07:17;17.98;;;12.98;;
19969;SDS011;10146;47.754;9.566;2023-02-22T13:19:02;16.70;;;13.93;;
19969;SDS011;10146;47.754;9.566;2023-02-22T13:26:52;17.02;;;14.25;;
19969;SDS011;10146;47.754;9.566;2023-02-22T13:29:39;18.40;;;13.35;;
19969;SDS011;10146;47.754;9.566;2023-02-22T13:40:37;17.13;;;13.70;;
19969;SDS011;10146;47.754;9.566;2023-02-22T13:51:47;19.35;;;13.25;;
19969;SDS011;10146;47.754;9.566;2023-02-22T13:56:54;17.63;;;13.98;;
19969;SDS011;10146;47.754;9.566;2023-02-22T13:59:30;15.50;;;13.75;;
19969;SDS011;10146;47.754;9.566;2023-02-22T14:01:58;17.17;;;13.35;;
19969;SDS011;10146;47.754;9.566;2023-02-22T14:17:42;15.35;;;12.68;;
19969;SDS011;10146;47.754;9.566;2023-02-22T14:22:40;19.73;;;11.68;;
19969;SDS011;10146;47.754;9.566;2023-02-22T14:28:09;14.43;;;11.18;;
19969;SDS011;10146;47.754;9.566;2023-02-22T14:33:55;13.40;;;11.18;;
19969;SDS011;10146;47.754;9.566;2023-02-22T14:36:22;13.98;;;11.05;;
19969;SDS011;10146;47.754;9.566;2023-02-22T14:39:21;14.18;;;11.20;;
19969;SDS011;10146;47.754;9.566;2023-02-22T14:41:50;12.85;;;10.05;;
19969;SDS011;10146;47.754;9.566;2023-02-22T14:44:25;15.95;;;11.27;;
19969;SDS011;10146;47.754;9.566;2023-02-22T14:46:57;16.33;;;11.00;;
19969;SDS011;10146;47.754;9.566;2023-02-22T14:49:29;14.45;;;10.57;;
19969;SDS011;10146;47.754;9.566;2023-02-22T14:52:01;14.90;;;10.68;;
19969;SDS011;10146;47.754;9.566;2023-02-22T14:54:37;12.77;;;10.57;;
19969;SDS011;10146;47.754;9.566;2023-02-22T14:57:20;11.77;;;9.98;;
19969;SDS011;10146;47.754;9.566;2023-02-22T15:02:44;12.32;;;9.68;;
19969;SDS011;10146;47.754;9.566;2023-02-22T15:05:15;13.98;;;10.40;;
19969;SDS011;10146;47.754;9.566;2023-02-22T15:07:57;15.90;;;10.75;;
19969;SDS011;10146;47.754;9.566;2023-02-22T15:10:27;11.07;;;9.60;;
19969;SDS011;10146;47.754;9.566;2023-02-22T15:13:00;12.52;;;10.25;;
19969;SDS011;10146;47.754;9.566;2023-02-22T15:15:44;12.80;;;10.45;;
19969;SDS011;10146;47.754;9.566;2023-02-22T15:18:32;11.80;;;9.50;;
19969;SDS011;10146;47.754;9.566;2023-02-22T15:21:06;12.02;;;10.07;;
19969;SDS011;10146;47.754;9.566;2023-02-22T15:23:55;12.77;;;9.95;;
19969;SDS011;10146;47.754;9.566;2023-02-22T15:26:35;11.43;;;9.70;;
19969;SDS011;10146;47.754;9.566;2023-02-22T15:31:43;14.30;;;10.20;;
19969;SDS011;10146;47.754;9.566;2023-02-22T15:36:40;15.93;;;10.10;;
19969;SDS011;10146;47.754;9.566;2023-02-22T15:39:17;13.30;;;10.43;;
19969;SDS011;10146;47.754;9.566;2023-02-22T15:44:48;12.05;;;10.65;;
19969;SDS011;10146;47.754;9.566;2023-02-22T15:47:26;14.98;;;11.15;;
19969;SDS011;10146;47.754;9.566;2023-02-22T15:50:12;12.95;;;9.95;;
19969;SDS011;10146;47.754;9.566;2023-02-22T15:52:52;14.73;;;11.55;;
19969;SDS011;10146;47.754;9.566;2023-02-22T15:55:23;14.23;;;10.88;;
19969;SDS011;10146;47.754;9.566;2023-02-22T15:57:51;13.00;;;11.10;;
19969;SDS011;10146;47.754;9.566;2023-02-22T16:00:25;14.10;;;10.80;;
19969;SDS011;10146;47.754;9.566;2023-02-22T16:02:59;16.60;;;11.65;;
19969;SDS011;10146;47.754;9.566;2023-02-22T16:05:39;14.50;;;10.90;;
19969;SDS011;10146;47.754;9.566;2023-02-22T16:08:13;14.43;;;11.02;;
19969;SDS011;10146;47.754;9.566;2023-02-22T16:10:45;15.68;;;11.70;;
19969;SDS011;10146;47.754;9.566;2023-02-22T16:13:23;16.42;;;11.80;;
19969;SDS011;10146;47.754;9.566;2023-02-22T16:15:58;14.23;;;11.73;;
19969;SDS011;10146;47.754;9.566;2023-02-22T16:18:32;12.98;;;11.48;;
19969;SDS011;10146;47.754;9.566;2023-02-22T16:21:10;16.05;;;12.68;;
19969;SDS011;10146;47.754;9.566;2023-02-22T16:23:46;15.45;;;11.90;;
19969;SDS011;10146;47.754;9.566;2023-02-22T16:26:23;17.27;;;12.00;;
19969;SDS011;10146;47.754;9.566;2023-02-22T16:29:00;17.58;;;11.93;;
19969;SDS011;10146;47.754;9.566;2023-02-22T16:31:32;17.10;;;13.23;;
19969;SDS011;10146;47.754;9.566;2023-02-22T16:34:00;16.65;;;11.40;;
19969;SDS011;10146;47.754;9.566;2023-02-22T16:36:38;14.65;;;12.82;;
19969;SDS011;10146;47.754;9.566;2023-02-22T16:39:22;18.15;;;13.57;;
19969;SDS011;10146;47.754;9.566;2023-02-22T16:41:53;18.50;;;13.95;;
19969;SDS011;10146;47.754;9.566;2023-02-22T16:44:21;17.08;;;13.18;;
19969;SDS011;10146;47.754;9.566;2023-02-22T16:46:49;17.52;;;13.15;;
19969;SDS011;10146;47.754;9.566;2023-02-22T16:49:15;17.73;;;13.80;;
19969;SDS011;10146;47.754;9.566;2023-02-22T16:51:45;18.08;;;14.15;;
19969;SDS011;10146;47.754;9.566;2023-02-22T16:54:16;17.15;;;13.70;;
19969;SDS011;10146;47.754;9.566;2023-02-22T16:56:47;16.70;;;13.45;;
19969;SDS011;10146;47.754;9.566;2023-02-22T16:59:13;19.92;;;14.05;;
19969;SDS011;10146;47.754;9.566;2023-02-22T17:01:40;18.27;;;13.88;;
19969;SDS011;10146;47.754;9.566;2023-02-22T17:04:12;17.92;;;14.23;;
19969;SDS011;10146;47.754;9.566;2023-02-22T17:06:39;21.25;;;14.80;;
19969;SDS011;10146;47.754;9.566;2023-02-22T17:09:05;17.52;;;13.38;;
19969;SDS011;10146;47.754;9.566;2023-02-22T17:11:32;17.30;;;13.65;;
19969;SDS011;10146;47.754;9.566;2023-02-22T17:13:58;17.80;;;13.68;;
19969;SDS011;10146;47.754;9.566;2023-02-22T17:16:24;16.50;;;13.75;;
19969;SDS011;10146;47.754;9.566;2023-02-22T17:18:49;20.48;;;14.13;;
19969;SDS011;10146;47.754;9.566;2023-02-22T17:21:15;18.83;;;14.75;;
19969;SDS011;10146;47.754;9.566;2023-02-22T17:23:41;18.77;;;13.88;;
19969;SDS011;10146;47.754;9.566;2023-02-22T17:26:10;17.25;;;13.05;;
19969;SDS011;10146;47.754;9.566;2023-02-22T17:28:37;20.00;;;13.93;;